Jose de San Martin, Argentina
Current Conditions -  °F | °C
As of 6:00 AM on Sunday 23 Nov 2014 (Local Time) from SCAP Reporting Station
Few Clouds Few Clouds  
Wind Chill: 50°   Ceiling: Unl
Heat Index: 50°   Visibility: NA
Dew Point: 45°   Wind: 3mph
Humidity: 82%   Direction: 240°WSW
Pressure: 29.83"   Gusts: NA
Location:  44.03°S, 70.48°W
Report Text: SCAP 230900Z AUTO 24003KT 200V310 //// // FEW016 10/07 Q1010
Loading
Personal Weather Stations






























Interactive Weather Map New forecast layout! Learn more

10-Day Weather Forecast

Advertisements
Track Severe Weather on mobile